الصفحة الرئيسية
METAR-TAF:

METAR-TAF

مطار :

Yacuíba, بوليفيا

دائرة عرض: 21-57S, خط طول: 063-39W, ارتفاع: 645 متر

مراقبة الطقس الحالي

تاريخ ووقت الإصدار 13ساعات و 38 دقيقة قبل الساعة 20:00UTC
رياح هادئة
درجة الحرارة 31°درجة مئوية
الرطوبة 55%
ضغط 1010 hPa
الرؤية 10 كم أو أكثر
غيوم قليلة على ارتفاع 2300 قدم
غيوم متفرقة على ارتفاع 20000 قدم

METAR: SLYA 012000Z 00000KT 9999 FEW023 SCT200 31/21 Q1010

زمن: 05:38 (09:38 UTC)


TAF: مفقودة

أرصاد الطقس والتوقعات من أكثر من 4000 مطار (تقارير الطقس للمطار METAR والتنبؤ بالطقس بالمطارTAF).

المحطات المتاحة هي النقط الصفراء والحمراء على الخريطة.

حرك المؤشر فوق النقطة لمعرفة اسم المحطة.

ثم انقر لمعرفة أرصاد وتوقعات الطقس.

لتغيير الخارطة: اضغط على الأزرار الخضراء مع رمز الصليب الأسود للتكبير. على الزر الأخضر مع شرطة للتصغير، أو على الأسهم الخضراء للخرائط المجاورة.


METAR-TAF: